createdAt,value
2018-10-11T00:01:12.276Z,12.53
2018-10-11T00:03:41.127Z,12.27
2018-10-11T00:06:09.964Z,12.13
2018-10-11T00:08:39.541Z,12.03
2018-10-11T00:11:08.384Z,14.40
2018-10-11T00:13:37.982Z,14.40
2018-10-11T00:16:06.834Z,12.97
2018-10-11T00:18:35.681Z,12.80
2018-10-11T00:21:04.520Z,12.03
2018-10-11T00:23:33.368Z,11.33
2018-10-11T00:26:02.212Z,11.40
2018-10-11T00:28:31.060Z,11.77
2018-10-11T00:30:59.906Z,10.63
2018-10-11T00:33:29.502Z,11.37
2018-10-11T00:35:58.350Z,13.00
2018-10-11T00:38:27.200Z,13.05
2018-10-11T00:40:56.792Z,11.83
2018-10-11T00:43:26.388Z,11.07
2018-10-11T00:45:55.245Z,11.90
2018-10-11T00:48:24.106Z,13.48
2018-10-11T00:50:52.960Z,11.80
2018-10-11T00:53:21.812Z,12.10
2018-10-11T00:55:50.655Z,13.30
2018-10-11T00:58:20.232Z,12.00
2018-10-11T01:00:49.085Z,12.27
2018-10-11T01:03:17.988Z,12.83
2018-10-11T01:05:47.531Z,12.57
2018-10-11T01:08:16.916Z,13.30
2018-10-11T01:10:45.285Z,13.07
2018-10-11T01:13:14.089Z,12.57
2018-10-11T01:15:42.953Z,12.47
2018-10-11T01:18:11.803Z,12.80
2018-10-11T01:20:40.638Z,12.40
2018-10-11T01:23:09.470Z,12.57
2018-10-11T01:25:38.320Z,13.10
2018-10-11T01:28:07.157Z,12.43
2018-10-11T01:30:36.045Z,13.63
2018-10-11T01:33:04.870Z,13.20
2018-10-11T01:35:33.713Z,13.23
2018-10-11T01:38:02.568Z,13.00
2018-10-11T01:40:31.412Z,14.60
2018-10-11T01:43:00.262Z,12.37
2018-10-11T01:45:29.106Z,12.40
2018-10-11T01:47:57.947Z,13.17
2018-10-11T01:50:26.791Z,11.73
2018-10-11T01:52:55.632Z,12.03
2018-10-11T01:55:25.212Z,12.17
2018-10-11T01:57:54.072Z,12.87
2018-10-11T02:00:22.906Z,13.95
2018-10-11T02:02:51.753Z,12.53
2018-10-11T02:05:20.593Z,13.50
2018-10-11T02:07:50.014Z,14.27
2018-10-11T02:10:18.881Z,12.70
2018-10-11T02:12:47.738Z,13.40
2018-10-11T02:15:16.569Z,13.13
2018-10-11T02:17:45.426Z,12.77
2018-10-11T02:20:14.260Z,14.80
2018-10-11T02:22:43.110Z,14.37
2018-10-11T02:25:11.951Z,13.33
2018-10-11T02:27:40.800Z,13.50
2018-10-11T02:30:09.654Z,14.03
2018-10-11T02:32:39.260Z,17.25
2018-10-11T02:35:08.104Z,16.57
2018-10-11T02:37:37.694Z,15.20
2018-10-11T02:42:35.422Z,17.60
2018-10-11T02:45:04.980Z,17.40
2018-10-11T02:47:33.836Z,19.60
2018-10-11T02:50:02.668Z,17.30
2018-10-11T02:52:32.264Z,16.30
2018-10-11T02:55:01.109Z,19.67
2018-10-11T02:57:43.757Z,20.05
2018-10-11T03:00:12.619Z,18.13
2018-10-11T03:02:41.459Z,17.57
2018-10-11T03:05:10.309Z,17.33
2018-10-11T03:07:39.147Z,18.10
2018-10-11T03:10:08.734Z,18.37
2018-10-11T03:12:37.609Z,18.43
2018-10-11T03:15:06.455Z,20.98
2018-10-11T03:17:35.291Z,19.43
2018-10-11T03:20:04.158Z,18.40
2018-10-11T03:22:32.995Z,20.98
2018-10-11T03:25:01.845Z,19.20
2018-10-11T03:27:30.688Z,19.33
2018-10-11T03:29:59.523Z,18.87
2018-10-11T03:32:28.378Z,18.37
2018-10-11T03:34:57.230Z,19.77
2018-10-11T03:37:26.833Z,18.33
2018-10-11T03:39:55.677Z,20.37
2018-10-11T03:42:24.518Z,18.07
2018-10-11T03:44:54.112Z,19.03
2018-10-11T03:47:23.709Z,20.80
2018-10-11T03:49:52.556Z,18.20
2018-10-11T03:52:21.403Z,17.40
2018-10-11T03:54:50.247Z,17.87
2018-10-11T03:57:19.083Z,18.33
2018-10-11T03:59:47.925Z,18.33
2018-10-11T04:02:16.773Z,18.87
2018-10-11T04:04:46.352Z,18.37
2018-10-11T04:07:15.942Z,19.00
2018-10-11T04:09:44.782Z,20.23
2018-10-11T04:12:13.626Z,19.37
2018-10-11T04:14:42.475Z,19.50
2018-10-11T04:17:11.318Z,17.77
2018-10-11T04:19:40.157Z,18.50
2018-10-11T04:22:09.004Z,19.77
2018-10-11T04:24:37.845Z,19.40
2018-10-11T04:27:06.686Z,19.97
2018-10-11T04:29:35.545Z,20.90
2018-10-11T04:32:04.393Z,23.12
2018-10-11T04:34:33.243Z,20.10
2018-10-11T04:37:02.087Z,19.70
2018-10-11T04:39:30.934Z,18.70
2018-10-11T04:41:59.787Z,20.07
2018-10-11T04:44:28.654Z,21.80
2018-10-11T04:46:57.502Z,19.63
2018-10-11T04:49:27.093Z,20.30
2018-10-11T04:51:55.948Z,21.95
2018-10-11T04:54:24.821Z,17.93
2018-10-11T04:56:54.370Z,19.17
2018-10-11T04:59:23.217Z,21.23
2018-10-11T05:01:52.061Z,17.97
2018-10-11T05:04:20.953Z,17.17
2018-10-11T05:06:49.839Z,18.63
2018-10-11T05:09:18.659Z,20.40
2018-10-11T05:11:47.509Z,18.13
2018-10-11T05:14:16.348Z,17.73
2018-10-11T05:16:45.201Z,17.83
2018-10-11T05:19:14.039Z,18.07
2018-10-11T05:21:42.884Z,18.23
2018-10-11T05:24:12.461Z,19.17
2018-10-11T05:26:41.311Z,18.03
2018-10-11T05:29:10.154Z,14.30
2018-10-11T05:31:39.741Z,19.53
2018-10-11T05:34:08.592Z,23.02
2018-10-11T05:36:37.437Z,20.33
2018-10-11T05:39:06.305Z,19.60
2018-10-11T05:41:35.252Z,21.08
2018-10-11T05:44:04.111Z,18.70
2018-10-11T05:46:32.963Z,18.10
2018-10-11T05:49:01.801Z,19.23
2018-10-11T05:51:31.387Z,17.80
2018-10-11T05:54:00.225Z,19.60
2018-10-11T05:56:29.099Z,19.03
2018-10-11T05:58:57.934Z,19.17
2018-10-11T06:01:26.773Z,18.53
2018-10-11T06:03:56.349Z,20.53
2018-10-11T06:06:25.200Z,20.80
2018-10-11T06:08:54.042Z,22.80
2018-10-11T06:11:22.896Z,23.53
2018-10-11T06:13:51.729Z,25.37
2018-10-11T06:16:21.310Z,24.83
2018-10-11T06:18:50.181Z,28.10
2018-10-11T06:21:19.015Z,24.63
2018-10-11T06:23:48.621Z,24.07
2018-10-11T06:26:18.220Z,26.80
2018-10-11T06:28:47.067Z,25.53
2018-10-11T06:31:15.915Z,29.70
2018-10-11T06:33:44.764Z,29.53
2018-10-11T06:36:13.649Z,32.40
2018-10-11T06:38:42.449Z,30.33
2018-10-11T06:41:11.304Z,34.57
2018-10-11T06:43:40.142Z,40.33
2018-10-11T06:46:08.995Z,39.53
2018-10-11T06:48:37.852Z,41.13
2018-10-11T06:51:06.707Z,38.17
2018-10-11T06:53:35.556Z,39.70
2018-10-11T06:56:04.468Z,40.03
2018-10-11T06:58:33.985Z,40.97
2018-10-11T07:01:02.844Z,37.57
2018-10-11T07:03:31.694Z,38.10
2018-10-11T07:06:01.308Z,33.63
2018-10-11T07:08:30.107Z,38.72
2018-10-11T07:10:58.946Z,34.55
2018-10-11T07:13:27.809Z,31.03
2018-10-11T07:15:56.668Z,31.70
2018-10-11T07:18:25.529Z,28.90
2018-10-11T07:20:54.369Z,27.03
2018-10-11T07:23:23.213Z,27.00
2018-10-11T07:25:52.139Z,27.53
2018-10-11T07:28:20.937Z,31.87
2018-10-11T07:30:49.788Z,27.27
2018-10-11T07:33:19.375Z,26.10
2018-10-11T07:35:48.218Z,25.70
2018-10-11T07:38:17.053Z,28.60
2018-10-11T07:40:45.953Z,30.23
2018-10-11T07:43:14.783Z,25.67
2018-10-11T07:45:43.628Z,30.30
2018-10-11T07:48:12.488Z,29.10
2018-10-11T07:50:44.176Z,27.57
2018-10-11T07:53:13.020Z,30.00
2018-10-11T07:55:41.855Z,29.17
2018-10-11T07:58:10.695Z,30.93
2018-10-11T08:00:39.530Z,31.77
2018-10-11T08:03:08.415Z,30.77
2018-10-11T08:05:38.002Z,39.67
2018-10-11T08:08:06.863Z,35.33
2018-10-11T08:10:35.753Z,33.43
2018-10-11T08:13:04.557Z,32.80
2018-10-11T08:15:33.397Z,37.75
2018-10-11T08:18:02.449Z,32.90
2018-10-11T08:20:31.124Z,34.27
2018-10-11T08:22:59.929Z,37.03
2018-10-11T08:25:29.046Z,36.13
2018-10-11T08:27:57.615Z,38.20
2018-10-11T08:30:26.451Z,35.40
2018-10-11T08:32:55.317Z,33.13
2018-10-11T08:35:24.146Z,34.40
2018-10-11T08:37:53.063Z,31.83
2018-10-11T08:40:21.832Z,32.83
2018-10-11T08:42:50.703Z,32.57
2018-10-11T08:45:19.536Z,32.53
2018-10-11T08:47:48.412Z,33.30
2018-10-11T08:50:17.395Z,36.88
2018-10-11T08:52:46.141Z,36.47
2018-10-11T08:55:14.983Z,29.57
2018-10-11T08:57:43.833Z,31.53
2018-10-11T09:00:12.676Z,32.73
2018-10-11T09:02:42.255Z,32.80
2018-10-11T09:05:11.138Z,35.13
2018-10-11T09:07:39.956Z,30.87
2018-10-11T09:10:08.799Z,34.37
2018-10-11T09:12:37.636Z,35.53
2018-10-11T09:15:06.479Z,33.37
2018-10-11T09:17:35.336Z,33.07
2018-10-11T09:20:04.202Z,35.27
2018-10-11T09:22:33.059Z,38.47
2018-10-11T09:25:01.894Z,33.37
2018-10-11T09:27:30.754Z,33.00
2018-10-11T09:29:59.600Z,34.30
2018-10-11T09:32:28.454Z,33.70
2018-10-11T09:34:57.304Z,33.47
2018-10-11T09:37:26.162Z,35.33
2018-10-11T09:39:55.756Z,31.13
2018-10-11T09:42:24.606Z,31.20
2018-10-11T09:44:53.449Z,32.27
2018-10-11T09:47:22.291Z,31.47
2018-10-11T09:49:51.128Z,30.83
2018-10-11T09:52:20.002Z,30.70
2018-10-11T09:54:48.872Z,31.67
2018-10-11T09:57:17.667Z,31.87
2018-10-11T09:59:46.515Z,28.87
2018-10-11T10:02:15.376Z,31.60
2018-10-11T10:04:44.206Z,30.13
2018-10-11T10:07:13.048Z,29.73
2018-10-11T10:09:41.895Z,31.53
2018-10-11T10:12:10.733Z,30.93
2018-10-11T10:14:39.579Z,30.60
2018-10-11T10:17:08.424Z,30.53
2018-10-11T10:19:37.264Z,27.30
2018-10-11T10:22:06.862Z,30.73
2018-10-11T10:24:35.720Z,28.77
2018-10-11T10:27:04.599Z,27.70
2018-10-11T10:29:33.408Z,29.27
2018-10-11T10:32:02.268Z,28.63
2018-10-11T10:34:31.107Z,27.77
2018-10-11T10:36:59.964Z,26.73
2018-10-11T10:39:28.809Z,21.00
2018-10-11T10:41:57.683Z,24.97
2018-10-11T10:44:26.509Z,26.30
2018-10-11T10:46:55.361Z,23.07
2018-10-11T10:49:24.212Z,22.37
2018-10-11T10:51:53.057Z,21.20
2018-10-11T10:54:22.737Z,21.60
2018-10-11T10:56:51.493Z,22.25
2018-10-11T10:59:20.337Z,19.57
2018-10-11T11:01:49.262Z,18.67
2018-10-11T11:04:18.092Z,19.80
2018-10-11T11:06:46.930Z,20.98
2018-10-11T11:09:15.812Z,19.73
2018-10-11T11:11:44.670Z,19.20
2018-10-11T11:14:13.483Z,19.37
2018-10-11T11:16:42.344Z,18.87
2018-10-11T11:19:11.179Z,19.40
2018-10-11T11:21:40.016Z,18.57
2018-10-11T11:24:08.876Z,18.90
2018-10-11T11:26:37.719Z,18.67
2018-10-11T11:29:06.563Z,18.43
2018-10-11T11:31:35.416Z,19.07
2018-10-11T11:34:04.264Z,18.10
2018-10-11T11:36:33.112Z,17.53
2018-10-11T11:39:01.967Z,18.13
2018-10-11T11:41:30.863Z,17.90
2018-10-11T11:43:59.692Z,18.37
2018-10-11T11:46:28.533Z,16.73
2018-10-11T11:48:58.125Z,17.10
2018-10-11T11:51:26.968Z,18.27
2018-10-11T11:53:55.807Z,17.33
2018-10-11T11:56:24.660Z,17.17
2018-10-11T11:58:53.515Z,17.67
2018-10-11T12:01:22.374Z,16.60
2018-10-11T12:03:51.228Z,15.27
2018-10-11T12:06:20.076Z,14.93
2018-10-11T12:08:49.670Z,14.70
2018-10-11T12:11:19.265Z,14.00
2018-10-11T12:13:48.116Z,14.90
2018-10-11T12:16:16.970Z,15.38
2018-10-11T12:18:45.815Z,14.70
2018-10-11T12:21:14.669Z,14.70
2018-10-11T12:23:43.539Z,14.70
2018-10-11T12:26:13.127Z,13.60
2018-10-11T12:28:42.187Z,15.10
2018-10-11T12:31:10.832Z,13.93
2018-10-11T12:33:40.403Z,15.15
2018-10-11T12:36:09.279Z,14.80
2018-10-11T12:38:38.144Z,14.43
2018-10-11T12:41:06.989Z,15.38
2018-10-11T12:43:36.580Z,14.80
2018-10-11T12:46:05.446Z,14.25
2018-10-11T12:48:34.286Z,15.85
2018-10-11T12:51:03.136Z,15.52
2018-10-11T12:53:31.985Z,14.45
2018-10-11T12:56:00.833Z,13.10
2018-10-11T12:58:29.685Z,13.43
2018-10-11T13:00:58.553Z,13.87
2018-10-11T13:03:28.235Z,13.53
2018-10-11T13:05:56.980Z,12.33
2018-10-11T13:08:25.848Z,14.20
2018-10-11T13:10:54.704Z,11.97
2018-10-11T13:13:23.554Z,13.25
2018-10-11T13:15:52.480Z,12.48
2018-10-11T13:18:21.250Z,13.73
2018-10-11T13:20:50.096Z,12.65
2018-10-11T13:23:18.937Z,13.47
2018-10-11T13:25:48.534Z,13.57
2018-10-11T13:28:17.378Z,12.40
2018-10-11T13:30:46.213Z,12.73
2018-10-11T13:33:15.053Z,12.93
2018-10-11T13:35:43.901Z,12.33
2018-10-11T13:38:12.759Z,13.13
2018-10-11T13:40:41.972Z,15.15
2018-10-11T13:43:10.461Z,13.65
2018-10-11T13:45:39.313Z,13.87
2018-10-11T13:48:08.161Z,14.65
2018-10-11T13:50:37.008Z,13.30
2018-10-11T13:53:05.956Z,13.07
2018-10-11T13:55:34.715Z,13.27
2018-10-11T13:58:04.310Z,13.53
2018-10-11T14:00:33.154Z,14.48
2018-10-11T14:03:02.024Z,15.47
2018-10-11T14:05:30.872Z,12.77
2018-10-11T14:07:59.731Z,13.38
2018-10-11T14:10:28.633Z,12.80
2018-10-11T14:12:57.477Z,12.10
2018-10-11T14:15:26.311Z,12.37
2018-10-11T14:17:55.185Z,14.15
2018-10-11T14:20:24.042Z,13.57
2018-10-11T14:22:53.647Z,13.27
2018-10-11T14:25:22.501Z,13.20
2018-10-11T14:27:51.352Z,15.02
2018-10-11T14:30:20.204Z,12.88
2018-10-11T14:32:49.804Z,12.73
2018-10-11T14:35:19.411Z,14.20
2018-10-11T14:37:48.302Z,14.70
2018-10-11T14:40:17.126Z,12.98
2018-10-11T14:42:45.981Z,13.55
2018-10-11T14:45:14.847Z,12.32
2018-10-11T14:47:43.713Z,13.93
2018-10-11T14:50:12.554Z,14.40
2018-10-11T14:52:42.150Z,14.57
2018-10-11T14:55:11.012Z,12.60
2018-10-11T14:57:39.879Z,13.52
2018-10-11T15:00:08.726Z,12.43
2018-10-11T15:02:37.621Z,11.88
2018-10-11T15:05:06.442Z,12.27
2018-10-11T15:07:35.280Z,11.48
2018-10-11T15:10:04.134Z,11.50
2018-10-11T15:12:32.983Z,11.73
2018-10-11T15:15:02.572Z,12.73
2018-10-11T15:17:31.433Z,13.07
2018-10-11T15:20:00.269Z,12.68
2018-10-11T15:22:29.131Z,12.10
2018-10-11T15:24:57.984Z,11.05
2018-10-11T15:27:26.874Z,11.73
2018-10-11T15:29:55.737Z,11.30
2018-10-11T15:32:25.294Z,11.17
2018-10-11T15:34:54.158Z,12.55
2018-10-11T15:37:22.994Z,11.10
2018-10-11T15:39:51.844Z,10.30
2018-10-11T15:42:20.691Z,11.23
2018-10-11T15:44:49.540Z,10.87
2018-10-11T15:47:18.400Z,11.83
2018-10-11T15:49:47.241Z,11.57
2018-10-11T15:52:16.103Z,11.18
2018-10-11T15:54:44.957Z,13.30
2018-10-11T15:57:13.809Z,12.70
2018-10-11T15:59:42.692Z,13.40
2018-10-11T16:02:11.562Z,13.40
2018-10-11T16:04:40.428Z,11.60
2018-10-11T16:07:09.260Z,11.40
2018-10-11T16:09:38.116Z,11.53
2018-10-11T16:12:06.983Z,12.98
2018-10-11T16:14:35.852Z,11.55
2018-10-11T16:17:04.692Z,13.45
2018-10-11T16:19:33.581Z,13.00
2018-10-11T16:22:02.690Z,12.52
2018-10-11T16:24:31.539Z,11.43
2018-10-11T16:27:00.383Z,11.53
2018-10-11T16:29:29.222Z,11.37
2018-10-11T16:31:58.110Z,11.33
2018-10-11T16:34:27.681Z,8.23
2018-10-11T16:36:57.278Z,10.97
2018-10-11T16:39:26.884Z,11.38
2018-10-11T16:41:55.905Z,10.38
2018-10-11T16:44:24.733Z,10.53
2018-10-11T16:46:53.557Z,10.97
2018-10-11T16:49:22.411Z,10.07
2018-10-11T16:51:51.266Z,11.30
2018-10-11T16:54:20.121Z,10.73
2018-10-11T16:56:49.723Z,10.17
2018-10-11T16:59:18.595Z,10.73
2018-10-11T17:01:47.421Z,10.10
2018-10-11T17:04:16.398Z,9.73
2018-10-11T17:06:45.110Z,10.20
2018-10-11T17:09:14.680Z,9.57
2018-10-11T17:11:43.532Z,9.83
2018-10-11T17:14:12.380Z,9.33
2018-10-11T17:16:41.216Z,9.80
2018-10-11T17:19:10.080Z,9.97
2018-10-11T17:21:39.026Z,10.97
2018-10-11T17:24:08.545Z,10.87
2018-10-11T17:26:37.387Z,10.77
2018-10-11T17:29:06.233Z,10.43
2018-10-11T17:31:35.831Z,11.60
2018-10-11T17:34:04.668Z,11.00
2018-10-11T17:36:33.515Z,11.13
2018-10-11T17:39:03.112Z,11.13
2018-10-11T17:41:31.951Z,11.40
2018-10-11T17:44:00.888Z,11.00
2018-10-11T17:46:30.426Z,10.97
2018-10-11T17:48:59.268Z,10.77
2018-10-11T17:51:28.145Z,11.13
2018-10-11T17:53:56.999Z,10.63
2018-10-11T17:58:59.755Z,11.13
2018-10-11T18:01:29.987Z,12.67
2018-10-11T18:03:59.625Z,11.37
2018-10-11T18:06:28.518Z,11.60
2018-10-11T18:08:58.730Z,12.73
2018-10-11T18:11:27.594Z,16.90
2018-10-11T18:13:56.433Z,15.13
2018-10-11T18:16:25.290Z,13.55
2018-10-11T18:18:54.147Z,12.43
2018-10-11T18:21:23.757Z,12.60
2018-10-11T18:23:52.572Z,13.60
2018-10-11T18:26:21.434Z,13.70
2018-10-11T18:28:50.280Z,13.00
2018-10-11T18:31:19.126Z,13.77
2018-10-11T18:33:47.992Z,12.87
2018-10-11T18:36:16.847Z,14.40
2018-10-11T18:38:45.680Z,14.40
2018-10-11T18:41:14.528Z,12.70
2018-10-11T18:43:43.420Z,12.37
2018-10-11T18:46:12.990Z,13.47
2018-10-11T18:48:41.820Z,12.23
2018-10-11T18:51:10.658Z,13.83
2018-10-11T18:53:39.516Z,13.33
2018-10-11T18:56:08.364Z,13.70
2018-10-11T18:58:37.218Z,14.33
2018-10-11T19:01:06.098Z,14.50
2018-10-11T19:03:34.905Z,14.80
2018-10-11T19:06:03.752Z,15.07
2018-10-11T19:08:32.639Z,14.90
2018-10-11T19:11:01.455Z,13.43
2018-10-11T19:13:30.305Z,13.70
2018-10-11T19:15:59.155Z,13.30
2018-10-11T19:18:28.750Z,13.03
2018-10-11T19:20:57.648Z,14.43
2018-10-11T19:23:26.517Z,13.90
2018-10-11T19:25:55.421Z,14.45
2018-10-11T19:28:24.236Z,14.27
2018-10-11T19:30:53.125Z,13.67
2018-10-11T19:33:21.946Z,13.80
2018-10-11T19:35:51.776Z,13.13
2018-10-11T19:38:20.640Z,13.73
2018-10-11T19:40:49.474Z,13.17
2018-10-11T19:43:18.354Z,12.90
2018-10-11T19:45:47.191Z,13.23
2018-10-11T19:48:16.088Z,13.03
2018-10-11T19:50:44.897Z,14.13
2018-10-11T19:53:15.580Z,13.53
2018-10-11T19:55:44.482Z,13.63
2018-10-11T19:58:13.356Z,15.35
2018-10-11T20:00:42.942Z,14.57
2018-10-11T20:03:11.787Z,14.40
2018-10-11T20:05:40.632Z,15.00
2018-10-11T20:08:09.523Z,14.23
2018-10-11T20:10:38.323Z,13.97
2018-10-11T20:13:07.177Z,14.63
2018-10-11T20:15:36.040Z,14.57
2018-10-11T20:18:04.890Z,14.43
2018-10-11T20:20:33.787Z,10.90
2018-10-11T20:23:03.379Z,16.08
2018-10-11T20:25:32.220Z,16.43
2018-10-11T20:28:01.070Z,16.80
2018-10-11T20:30:29.951Z,16.57
2018-10-11T20:32:58.800Z,15.83
2018-10-11T20:35:27.621Z,15.73
2018-10-11T20:37:57.136Z,17.63
2018-10-11T20:40:25.973Z,15.50
2018-10-11T20:42:54.846Z,16.67
2018-10-11T20:45:25.721Z,18.27
2018-10-11T20:47:54.566Z,16.63
2018-10-11T20:50:23.422Z,17.00
2018-10-11T20:52:52.282Z,13.40
2018-10-11T20:55:21.147Z,16.17
2018-10-11T20:57:50.007Z,17.00
2018-10-11T21:00:18.868Z,15.97
2018-10-11T21:02:47.710Z,17.10
2018-10-11T21:05:16.562Z,17.03
2018-10-11T21:07:45.410Z,16.57
2018-10-11T21:10:14.269Z,15.87
2018-10-11T21:12:43.190Z,15.73
2018-10-11T21:15:12.034Z,15.20
2018-10-11T21:17:41.662Z,13.83
2018-10-11T21:20:11.245Z,15.10
2018-10-11T21:22:40.823Z,15.03
2018-10-11T21:25:09.684Z,28.47
2018-10-11T21:27:38.521Z,22.23
2018-10-11T21:30:07.357Z,19.17
2018-10-11T21:32:36.207Z,17.73
2018-10-11T21:35:05.097Z,18.10
2018-10-11T21:37:34.035Z,18.25
2018-10-11T21:40:02.920Z,17.97
2018-10-11T21:42:31.744Z,16.57
2018-10-11T21:45:00.584Z,20.02
2018-10-11T21:47:29.469Z,17.98
2018-10-11T21:49:58.352Z,16.20
2018-10-11T21:52:27.234Z,15.80
2018-10-11T21:54:56.054Z,15.20
2018-10-11T21:57:24.910Z,15.67
2018-10-11T21:59:54.578Z,16.83
2018-10-11T22:02:24.142Z,17.70
2018-10-11T22:04:52.954Z,17.80
2018-10-11T22:07:21.822Z,18.73
2018-10-11T22:09:50.673Z,17.50
2018-10-11T22:12:20.264Z,17.12
2018-10-11T22:14:49.249Z,15.43
2018-10-11T22:17:17.964Z,15.70
2018-10-11T22:19:49.092Z,15.40
2018-10-11T22:22:17.941Z,17.10
2018-10-11T22:24:46.783Z,15.57
2018-10-11T22:27:15.623Z,14.93
2018-10-11T22:29:48.135Z,16.03
2018-10-11T22:32:17.002Z,14.83
2018-10-11T22:34:45.850Z,14.77
2018-10-11T22:37:14.702Z,15.57
2018-10-11T22:39:43.550Z,16.00
2018-10-11T22:42:12.404Z,17.15
2018-10-11T22:44:41.276Z,16.67
2018-10-11T22:47:10.119Z,17.47
2018-10-11T22:49:38.969Z,17.07
2018-10-11T22:52:07.829Z,17.60
2018-10-11T22:54:36.673Z,17.63
2018-10-11T22:57:05.524Z,17.10
2018-10-11T22:59:34.377Z,16.97
2018-10-11T23:02:03.232Z,17.13
2018-10-11T23:04:32.094Z,17.60
2018-10-11T23:07:00.933Z,16.50
2018-10-11T23:09:29.778Z,17.53
2018-10-11T23:11:58.619Z,17.07
2018-10-11T23:14:27.463Z,17.23
2018-10-11T23:16:57.060Z,17.17
2018-10-11T23:19:26.645Z,17.17
2018-10-11T23:21:55.479Z,17.80
2018-10-11T23:24:24.346Z,17.98
2018-10-11T23:26:53.948Z,18.37
2018-10-11T23:29:22.769Z,19.25
2018-10-11T23:31:51.624Z,17.30
2018-10-11T23:34:20.472Z,16.37
2018-10-11T23:36:49.310Z,18.73
2018-10-11T23:39:18.906Z,17.93
2018-10-11T23:41:47.750Z,18.57
2018-10-11T23:44:16.602Z,18.77
2018-10-11T23:46:45.454Z,17.93
2018-10-11T23:49:14.313Z,18.10
2018-10-11T23:51:43.167Z,18.63
2018-10-11T23:54:11.999Z,17.07
2018-10-11T23:56:40.839Z,19.93
2018-10-11T23:59:09.695Z,17.80
